sensor_id;sensor_type;location;lat;lon;timestamp;P1;durP1;ratioP1;P2;durP2;ratioP2
41885;SDS011;27567;43.084;25.616;2022-10-16T00:00:16;18.85;;;10.57;;
41885;SDS011;27567;43.084;25.616;2022-10-16T00:02:42;16.30;;;8.93;;
41885;SDS011;27567;43.084;25.616;2022-10-16T00:05:07;15.43;;;9.00;;
41885;SDS011;27567;43.084;25.616;2022-10-16T00:07:33;16.90;;;8.93;;
41885;SDS011;27567;43.084;25.616;2022-10-16T00:09:58;16.90;;;9.43;;
41885;SDS011;27567;43.084;25.616;2022-10-16T00:12:24;15.60;;;9.13;;
41885;SDS011;27567;43.084;25.616;2022-10-16T00:14:49;21.45;;;11.00;;
41885;SDS011;27567;43.084;25.616;2022-10-16T00:17:33;18.88;;;9.50;;
41885;SDS011;27567;43.084;25.616;2022-10-16T00:20:17;19.30;;;10.30;;
41885;SDS011;27567;43.084;25.616;2022-10-16T00:23:01;16.88;;;8.70;;
41885;SDS011;27567;43.084;25.616;2022-10-16T00:25:53;15.68;;;9.65;;
41885;SDS011;27567;43.084;25.616;2022-10-16T00:28:39;16.45;;;9.35;;
41885;SDS011;27567;43.084;25.616;2022-10-16T00:31:23;17.00;;;8.93;;
41885;SDS011;27567;43.084;25.616;2022-10-16T00:34:08;18.90;;;9.63;;
41885;SDS011;27567;43.084;25.616;2022-10-16T00:36:52;17.75;;;9.82;;
41885;SDS011;27567;43.084;25.616;2022-10-16T00:39:36;14.85;;;9.65;;
41885;SDS011;27567;43.084;25.616;2022-10-16T00:42:20;20.60;;;9.30;;
41885;SDS011;27567;43.084;25.616;2022-10-16T00:45:04;14.80;;;8.00;;
41885;SDS011;27567;43.084;25.616;2022-10-16T00:47:49;15.65;;;8.98;;
41885;SDS011;27567;43.084;25.616;2022-10-16T00:50:35;16.50;;;8.20;;
41885;SDS011;27567;43.084;25.616;2022-10-16T00:53:19;15.73;;;9.45;;
41885;SDS011;27567;43.084;25.616;2022-10-16T00:56:05;18.92;;;10.60;;
41885;SDS011;27567;43.084;25.616;2022-10-16T00:58:49;22.08;;;11.27;;
41885;SDS011;27567;43.084;25.616;2022-10-16T01:01:33;17.58;;;11.77;;
41885;SDS011;27567;43.084;25.616;2022-10-16T01:04:17;15.02;;;10.98;;
41885;SDS011;27567;43.084;25.616;2022-10-16T01:07:13;19.55;;;11.95;;
41885;SDS011;27567;43.084;25.616;2022-10-16T01:10:37;20.75;;;11.65;;
41885;SDS011;27567;43.084;25.616;2022-10-16T01:13:38;23.60;;;13.00;;
41885;SDS011;27567;43.084;25.616;2022-10-16T01:16:34;19.65;;;12.02;;
41885;SDS011;27567;43.084;25.616;2022-10-16T01:22:10;17.48;;;11.32;;
41885;SDS011;27567;43.084;25.616;2022-10-16T01:24:55;20.63;;;12.10;;
41885;SDS011;27567;43.084;25.616;2022-10-16T01:27:45;20.02;;;12.23;;
41885;SDS011;27567;43.084;25.616;2022-10-16T01:30:31;19.20;;;12.05;;
41885;SDS011;27567;43.084;25.616;2022-10-16T01:33:19;20.60;;;12.05;;
41885;SDS011;27567;43.084;25.616;2022-10-16T01:36:12;17.98;;;12.23;;
41885;SDS011;27567;43.084;25.616;2022-10-16T01:39:00;20.17;;;11.57;;
41885;SDS011;27567;43.084;25.616;2022-10-16T01:41:46;18.35;;;11.30;;
41885;SDS011;27567;43.084;25.616;2022-10-16T01:44:35;17.10;;;10.30;;
41885;SDS011;27567;43.084;25.616;2022-10-16T01:47:23;19.23;;;11.10;;
41885;SDS011;27567;43.084;25.616;2022-10-16T01:50:10;19.35;;;10.85;;
41885;SDS011;27567;43.084;25.616;2022-10-16T01:52:57;21.10;;;10.90;;
41885;SDS011;27567;43.084;25.616;2022-10-16T01:55:43;18.08;;;10.18;;
41885;SDS011;27567;43.084;25.616;2022-10-16T01:58:33;19.67;;;10.05;;
41885;SDS011;27567;43.084;25.616;2022-10-16T02:01:21;18.63;;;10.63;;
41885;SDS011;27567;43.084;25.616;2022-10-16T02:04:13;18.42;;;11.70;;
41885;SDS011;27567;43.084;25.616;2022-10-16T02:07:00;17.50;;;10.77;;
41885;SDS011;27567;43.084;25.616;2022-10-16T02:09:45;15.05;;;10.27;;
41885;SDS011;27567;43.084;25.616;2022-10-16T02:12:32;22.92;;;10.98;;
41885;SDS011;27567;43.084;25.616;2022-10-16T02:15:18;25.45;;;11.73;;
41885;SDS011;27567;43.084;25.616;2022-10-16T02:18:03;21.35;;;11.73;;
41885;SDS011;27567;43.084;25.616;2022-10-16T02:21:32;25.13;;;13.45;;
41885;SDS011;27567;43.084;25.616;2022-10-16T02:24:19;19.00;;;12.77;;
41885;SDS011;27567;43.084;25.616;2022-10-16T02:33:06;19.20;;;11.40;;
41885;SDS011;27567;43.084;25.616;2022-10-16T02:35:53;27.08;;;11.88;;
41885;SDS011;27567;43.084;25.616;2022-10-16T02:38:38;20.33;;;12.23;;
41885;SDS011;27567;43.084;25.616;2022-10-16T02:41:24;17.95;;;11.45;;
41885;SDS011;27567;43.084;25.616;2022-10-16T02:44:09;19.77;;;12.25;;
41885;SDS011;27567;43.084;25.616;2022-10-16T02:46:53;23.67;;;12.65;;
41885;SDS011;27567;43.084;25.616;2022-10-16T02:49:37;21.17;;;12.02;;
41885;SDS011;27567;43.084;25.616;2022-10-16T02:52:21;17.25;;;11.57;;
41885;SDS011;27567;43.084;25.616;2022-10-16T02:55:05;19.40;;;12.13;;
41885;SDS011;27567;43.084;25.616;2022-10-16T02:57:49;25.08;;;13.00;;
41885;SDS011;27567;43.084;25.616;2022-10-16T03:00:33;22.60;;;12.65;;
41885;SDS011;27567;43.084;25.616;2022-10-16T03:03:17;24.73;;;11.98;;
41885;SDS011;27567;43.084;25.616;2022-10-16T03:06:01;21.05;;;11.90;;
41885;SDS011;27567;43.084;25.616;2022-10-16T03:08:46;18.08;;;12.13;;
41885;SDS011;27567;43.084;25.616;2022-10-16T03:11:30;17.85;;;11.43;;
41885;SDS011;27567;43.084;25.616;2022-10-16T03:14:14;23.35;;;12.52;;
41885;SDS011;27567;43.084;25.616;2022-10-16T03:16:58;20.08;;;12.23;;
41885;SDS011;27567;43.084;25.616;2022-10-16T03:19:42;21.98;;;13.38;;
41885;SDS011;27567;43.084;25.616;2022-10-16T03:22:26;20.60;;;11.93;;
41885;SDS011;27567;43.084;25.616;2022-10-16T03:25:12;21.77;;;13.23;;
41885;SDS011;27567;43.084;25.616;2022-10-16T03:30:44;22.05;;;12.32;;
41885;SDS011;27567;43.084;25.616;2022-10-16T03:33:28;20.05;;;12.27;;
41885;SDS011;27567;43.084;25.616;2022-10-16T03:36:12;19.55;;;13.00;;
41885;SDS011;27567;43.084;25.616;2022-10-16T03:38:56;22.23;;;13.20;;
41885;SDS011;27567;43.084;25.616;2022-10-16T03:41:40;21.58;;;12.38;;
41885;SDS011;27567;43.084;25.616;2022-10-16T03:44:24;22.77;;;13.93;;
41885;SDS011;27567;43.084;25.616;2022-10-16T03:47:08;21.80;;;12.80;;
41885;SDS011;27567;43.084;25.616;2022-10-16T03:49:52;21.55;;;13.15;;
41885;SDS011;27567;43.084;25.616;2022-10-16T03:52:36;17.25;;;11.98;;
41885;SDS011;27567;43.084;25.616;2022-10-16T03:55:20;20.38;;;12.57;;
41885;SDS011;27567;43.084;25.616;2022-10-16T03:58:05;20.88;;;13.13;;
41885;SDS011;27567;43.084;25.616;2022-10-16T04:00:49;27.35;;;13.35;;
41885;SDS011;27567;43.084;25.616;2022-10-16T04:03:33;19.90;;;12.65;;
41885;SDS011;27567;43.084;25.616;2022-10-16T04:06:17;21.15;;;12.85;;
41885;SDS011;27567;43.084;25.616;2022-10-16T04:09:01;22.20;;;13.32;;
41885;SDS011;27567;43.084;25.616;2022-10-16T04:11:46;22.02;;;12.73;;
41885;SDS011;27567;43.084;25.616;2022-10-16T04:14:30;25.75;;;14.27;;
41885;SDS011;27567;43.084;25.616;2022-10-16T04:17:13;22.30;;;12.95;;
41885;SDS011;27567;43.084;25.616;2022-10-16T04:19:58;26.88;;;12.65;;
41885;SDS011;27567;43.084;25.616;2022-10-16T04:22:41;20.95;;;12.63;;
41885;SDS011;27567;43.084;25.616;2022-10-16T04:25:26;21.88;;;13.27;;
41885;SDS011;27567;43.084;25.616;2022-10-16T04:28:10;32.70;;;13.27;;
41885;SDS011;27567;43.084;25.616;2022-10-16T04:30:54;21.20;;;12.65;;
41885;SDS011;27567;43.084;25.616;2022-10-16T04:33:38;30.55;;;13.00;;
41885;SDS011;27567;43.084;25.616;2022-10-16T04:36:25;24.77;;;14.23;;
41885;SDS011;27567;43.084;25.616;2022-10-16T04:39:09;22.63;;;14.30;;
41885;SDS011;27567;43.084;25.616;2022-10-16T04:41:53;27.23;;;14.00;;
41885;SDS011;27567;43.084;25.616;2022-10-16T04:44:37;23.48;;;13.95;;
41885;SDS011;27567;43.084;25.616;2022-10-16T04:47:21;24.92;;;13.40;;
41885;SDS011;27567;43.084;25.616;2022-10-16T04:50:05;22.33;;;13.13;;
41885;SDS011;27567;43.084;25.616;2022-10-16T04:52:49;26.90;;;14.07;;
41885;SDS011;27567;43.084;25.616;2022-10-16T04:55:33;24.65;;;13.43;;
41885;SDS011;27567;43.084;25.616;2022-10-16T04:58:18;21.42;;;13.45;;
41885;SDS011;27567;43.084;25.616;2022-10-16T05:01:02;21.10;;;12.15;;
41885;SDS011;27567;43.084;25.616;2022-10-16T05:03:46;20.83;;;12.18;;
41885;SDS011;27567;43.084;25.616;2022-10-16T05:06:30;19.02;;;11.98;;
41885;SDS011;27567;43.084;25.616;2022-10-16T05:09:14;23.98;;;12.88;;
41885;SDS011;27567;43.084;25.616;2022-10-16T05:11:58;18.38;;;11.15;;
41885;SDS011;27567;43.084;25.616;2022-10-16T05:14:42;19.77;;;11.07;;
41885;SDS011;27567;43.084;25.616;2022-10-16T05:17:26;19.67;;;11.70;;
41885;SDS011;27567;43.084;25.616;2022-10-16T05:20:12;22.15;;;12.07;;
41885;SDS011;27567;43.084;25.616;2022-10-16T05:22:57;16.90;;;10.77;;
41885;SDS011;27567;43.084;25.616;2022-10-16T05:25:41;17.60;;;10.02;;
41885;SDS011;27567;43.084;25.616;2022-10-16T05:28:25;16.58;;;9.25;;
41885;SDS011;27567;43.084;25.616;2022-10-16T05:31:11;16.25;;;9.60;;
41885;SDS011;27567;43.084;25.616;2022-10-16T05:34:01;18.50;;;10.00;;
41885;SDS011;27567;43.084;25.616;2022-10-16T05:36:45;12.35;;;8.82;;
41885;SDS011;27567;43.084;25.616;2022-10-16T05:39:29;19.13;;;9.68;;
41885;SDS011;27567;43.084;25.616;2022-10-16T05:42:13;12.52;;;8.60;;
41885;SDS011;27567;43.084;25.616;2022-10-16T05:44:58;18.45;;;8.60;;
41885;SDS011;27567;43.084;25.616;2022-10-16T05:47:43;14.50;;;9.75;;
41885;SDS011;27567;43.084;25.616;2022-10-16T05:50:27;13.70;;;8.80;;
41885;SDS011;27567;43.084;25.616;2022-10-16T05:53:11;15.77;;;8.57;;
41885;SDS011;27567;43.084;25.616;2022-10-16T05:55:55;17.30;;;8.20;;
41885;SDS011;27567;43.084;25.616;2022-10-16T05:58:40;16.90;;;8.25;;
41885;SDS011;27567;43.084;25.616;2022-10-16T06:01:25;11.95;;;8.85;;
41885;SDS011;27567;43.084;25.616;2022-10-16T06:04:09;12.32;;;7.72;;
41885;SDS011;27567;43.084;25.616;2022-10-16T06:06:53;15.45;;;7.28;;
41885;SDS011;27567;43.084;25.616;2022-10-16T06:09:43;12.73;;;7.13;;
41885;SDS011;27567;43.084;25.616;2022-10-16T06:12:31;9.65;;;6.75;;
41885;SDS011;27567;43.084;25.616;2022-10-16T06:15:16;11.85;;;7.68;;
41885;SDS011;27567;43.084;25.616;2022-10-16T06:18:00;13.85;;;7.32;;
41885;SDS011;27567;43.084;25.616;2022-10-16T06:20:45;12.23;;;7.43;;
41885;SDS011;27567;43.084;25.616;2022-10-16T06:23:29;13.55;;;7.78;;
41885;SDS011;27567;43.084;25.616;2022-10-16T06:26:17;13.10;;;7.28;;
41885;SDS011;27567;43.084;25.616;2022-10-16T06:29:03;11.43;;;6.28;;
41885;SDS011;27567;43.084;25.616;2022-10-16T06:31:48;9.63;;;6.32;;
41885;SDS011;27567;43.084;25.616;2022-10-16T06:34:32;15.48;;;7.45;;
41885;SDS011;27567;43.084;25.616;2022-10-16T06:37:16;15.15;;;7.78;;
41885;SDS011;27567;43.084;25.616;2022-10-16T06:40:01;11.00;;;6.90;;
41885;SDS011;27567;43.084;25.616;2022-10-16T06:42:48;11.07;;;6.70;;
41885;SDS011;27567;43.084;25.616;2022-10-16T06:45:33;9.73;;;6.97;;
41885;SDS011;27567;43.084;25.616;2022-10-16T06:48:21;12.40;;;7.78;;
41885;SDS011;27567;43.084;25.616;2022-10-16T06:51:09;11.50;;;6.85;;
41885;SDS011;27567;43.084;25.616;2022-10-16T06:53:55;10.88;;;7.15;;
41885;SDS011;27567;43.084;25.616;2022-10-16T06:56:43;16.27;;;8.77;;
41885;SDS011;27567;43.084;25.616;2022-10-16T06:59:27;18.08;;;7.63;;
41885;SDS011;27567;43.084;25.616;2022-10-16T07:02:12;14.75;;;7.63;;
41885;SDS011;27567;43.084;25.616;2022-10-16T07:04:56;13.20;;;7.60;;
41885;SDS011;27567;43.084;25.616;2022-10-16T07:07:43;16.88;;;8.30;;
41885;SDS011;27567;43.084;25.616;2022-10-16T07:10:31;14.82;;;7.97;;
41885;SDS011;27567;43.084;25.616;2022-10-16T07:13:16;13.10;;;7.68;;
41885;SDS011;27567;43.084;25.616;2022-10-16T07:16:07;15.65;;;7.95;;
41885;SDS011;27567;43.084;25.616;2022-10-16T07:18:54;17.33;;;8.32;;
41885;SDS011;27567;43.084;25.616;2022-10-16T07:21:44;17.20;;;7.95;;
41885;SDS011;27567;43.084;25.616;2022-10-16T07:24:30;14.50;;;7.93;;
41885;SDS011;27567;43.084;25.616;2022-10-16T07:27:15;16.10;;;8.00;;
41885;SDS011;27567;43.084;25.616;2022-10-16T07:30:00;14.48;;;7.80;;
41885;SDS011;27567;43.084;25.616;2022-10-16T07:32:48;13.27;;;8.02;;
41885;SDS011;27567;43.084;25.616;2022-10-16T07:35:32;15.02;;;8.55;;
41885;SDS011;27567;43.084;25.616;2022-10-16T07:38:17;16.63;;;8.90;;
41885;SDS011;27567;43.084;25.616;2022-10-16T07:41:03;12.90;;;8.80;;
41885;SDS011;27567;43.084;25.616;2022-10-16T07:43:49;20.00;;;9.20;;
41885;SDS011;27567;43.084;25.616;2022-10-16T07:46:35;10.98;;;8.32;;
41885;SDS011;27567;43.084;25.616;2022-10-16T07:49:19;15.35;;;7.97;;
41885;SDS011;27567;43.084;25.616;2022-10-16T07:52:04;10.50;;;7.90;;
41885;SDS011;27567;43.084;25.616;2022-10-16T07:54:48;12.93;;;7.32;;
41885;SDS011;27567;43.084;25.616;2022-10-16T07:57:32;13.07;;;7.38;;
41885;SDS011;27567;43.084;25.616;2022-10-16T08:00:16;11.93;;;7.32;;
41885;SDS011;27567;43.084;25.616;2022-10-16T08:03:00;11.95;;;7.07;;
41885;SDS011;27567;43.084;25.616;2022-10-16T08:05:44;16.27;;;7.50;;
41885;SDS011;27567;43.084;25.616;2022-10-16T08:08:31;12.40;;;7.65;;
41885;SDS011;27567;43.084;25.616;2022-10-16T08:11:15;15.27;;;7.57;;
41885;SDS011;27567;43.084;25.616;2022-10-16T08:13:59;11.55;;;7.47;;
41885;SDS011;27567;43.084;25.616;2022-10-16T08:16:44;15.75;;;8.50;;
41885;SDS011;27567;43.084;25.616;2022-10-16T08:19:28;13.70;;;7.35;;
41885;SDS011;27567;43.084;25.616;2022-10-16T08:22:12;17.45;;;7.47;;
41885;SDS011;27567;43.084;25.616;2022-10-16T08:24:59;11.07;;;6.70;;
41885;SDS011;27567;43.084;25.616;2022-10-16T08:27:43;12.30;;;5.95;;
41885;SDS011;27567;43.084;25.616;2022-10-16T08:30:28;11.00;;;5.90;;
41885;SDS011;27567;43.084;25.616;2022-10-16T08:33:12;12.73;;;6.55;;
41885;SDS011;27567;43.084;25.616;2022-10-16T08:35:59;11.88;;;6.13;;
41885;SDS011;27567;43.084;25.616;2022-10-16T08:38:47;9.10;;;5.80;;
41885;SDS011;27567;43.084;25.616;2022-10-16T08:50:56;14.70;;;4.90;;
41885;SDS011;27567;43.084;25.616;2022-10-16T08:56:40;10.82;;;5.22;;
41885;SDS011;27567;43.084;25.616;2022-10-16T08:59:24;13.82;;;5.15;;
41885;SDS011;27567;43.084;25.616;2022-10-16T09:02:45;11.18;;;5.18;;
41885;SDS011;27567;43.084;25.616;2022-10-16T09:20:29;7.93;;;3.92;;
41885;SDS011;27567;43.084;25.616;2022-10-16T09:26:13;8.70;;;4.15;;
41885;SDS011;27567;43.084;25.616;2022-10-16T09:28:59;7.35;;;3.95;;
41885;SDS011;27567;43.084;25.616;2022-10-16T09:31:43;8.65;;;2.92;;
41885;SDS011;27567;43.084;25.616;2022-10-16T09:34:30;9.88;;;3.47;;
41885;SDS011;27567;43.084;25.616;2022-10-16T09:37:17;7.03;;;3.85;;
41885;SDS011;27567;43.084;25.616;2022-10-16T09:40:03;8.43;;;3.17;;
41885;SDS011;27567;43.084;25.616;2022-10-16T09:42:48;7.45;;;3.42;;
41885;SDS011;27567;43.084;25.616;2022-10-16T09:45:32;8.13;;;3.55;;
41885;SDS011;27567;43.084;25.616;2022-10-16T09:48:17;8.35;;;3.83;;
41885;SDS011;27567;43.084;25.616;2022-10-16T09:51:04;16.27;;;3.50;;
41885;SDS011;27567;43.084;25.616;2022-10-16T09:53:54;5.28;;;2.90;;
41885;SDS011;27567;43.084;25.616;2022-10-16T09:56:42;12.32;;;3.22;;
41885;SDS011;27567;43.084;25.616;2022-10-16T09:59:29;9.05;;;3.20;;
41885;SDS011;27567;43.084;25.616;2022-10-16T10:02:16;5.70;;;2.92;;
41885;SDS011;27567;43.084;25.616;2022-10-16T10:05:04;6.28;;;2.60;;
41885;SDS011;27567;43.084;25.616;2022-10-16T10:08:01;6.13;;;2.97;;
41885;SDS011;27567;43.084;25.616;2022-10-16T10:10:49;9.85;;;3.10;;
41885;SDS011;27567;43.084;25.616;2022-10-16T10:13:34;7.88;;;3.25;;
41885;SDS011;27567;43.084;25.616;2022-10-16T10:16:24;6.43;;;3.13;;
41885;SDS011;27567;43.084;25.616;2022-10-16T10:21:57;4.20;;;3.03;;
41885;SDS011;27567;43.084;25.616;2022-10-16T10:24:41;6.05;;;2.90;;
41885;SDS011;27567;43.084;25.616;2022-10-16T10:27:28;4.53;;;2.88;;
41885;SDS011;27567;43.084;25.616;2022-10-16T10:33:47;5.88;;;3.40;;
41885;SDS011;27567;43.084;25.616;2022-10-16T10:36:37;6.18;;;3.58;;
41885;SDS011;27567;43.084;25.616;2022-10-16T10:39:33;5.55;;;3.05;;
41885;SDS011;27567;43.084;25.616;2022-10-16T10:45:44;8.25;;;3.38;;
41885;SDS011;27567;43.084;25.616;2022-10-16T10:58:10;6.72;;;3.33;;
41885;SDS011;27567;43.084;25.616;2022-10-16T11:01:08;7.05;;;3.55;;
41885;SDS011;27567;43.084;25.616;2022-10-16T11:03:59;9.48;;;3.28;;
41885;SDS011;27567;43.084;25.616;2022-10-16T11:07:05;8.43;;;3.20;;
41885;SDS011;27567;43.084;25.616;2022-10-16T11:09:56;9.05;;;3.88;;
41885;SDS011;27567;43.084;25.616;2022-10-16T11:16:21;11.55;;;3.97;;
41885;SDS011;27567;43.084;25.616;2022-10-16T11:19:18;11.00;;;4.35;;
41885;SDS011;27567;43.084;25.616;2022-10-16T11:31:40;9.40;;;3.78;;
41885;SDS011;27567;43.084;25.616;2022-10-16T11:34:33;5.97;;;3.65;;
41885;SDS011;27567;43.084;25.616;2022-10-16T11:37:36;5.32;;;3.45;;
41885;SDS011;27567;43.084;25.616;2022-10-16T11:40:26;9.10;;;3.33;;
41885;SDS011;27567;43.084;25.616;2022-10-16T11:46:02;5.68;;;3.30;;
41885;SDS011;27567;43.084;25.616;2022-10-16T11:49:15;8.98;;;3.88;;
41885;SDS011;27567;43.084;25.616;2022-10-16T11:55:29;9.18;;;3.50;;
41885;SDS011;27567;43.084;25.616;2022-10-16T12:01:22;9.93;;;3.25;;
41885;SDS011;27567;43.084;25.616;2022-10-16T12:07:36;7.32;;;3.60;;
41885;SDS011;27567;43.084;25.616;2022-10-16T12:10:28;5.63;;;3.78;;
41885;SDS011;27567;43.084;25.616;2022-10-16T12:13:35;7.45;;;3.60;;
41885;SDS011;27567;43.084;25.616;2022-10-16T12:16:22;4.78;;;3.47;;
41885;SDS011;27567;43.084;25.616;2022-10-16T12:19:14;6.63;;;3.38;;
41885;SDS011;27567;43.084;25.616;2022-10-16T12:22:00;8.82;;;3.75;;
41885;SDS011;27567;43.084;25.616;2022-10-16T12:24:50;7.88;;;3.78;;
41885;SDS011;27567;43.084;25.616;2022-10-16T12:27:36;6.88;;;3.75;;
41885;SDS011;27567;43.084;25.616;2022-10-16T12:30:22;5.55;;;3.30;;
41885;SDS011;27567;43.084;25.616;2022-10-16T12:36:05;9.13;;;3.70;;
41885;SDS011;27567;43.084;25.616;2022-10-16T12:38:59;6.13;;;3.30;;
41885;SDS011;27567;43.084;25.616;2022-10-16T12:41:44;6.88;;;2.97;;
41885;SDS011;27567;43.084;25.616;2022-10-16T12:44:31;7.55;;;3.78;;
41885;SDS011;27567;43.084;25.616;2022-10-16T12:47:35;7.40;;;3.88;;
41885;SDS011;27567;43.084;25.616;2022-10-16T12:50:33;7.43;;;3.30;;
41885;SDS011;27567;43.084;25.616;2022-10-16T12:53:23;9.48;;;3.92;;
41885;SDS011;27567;43.084;25.616;2022-10-16T12:56:14;11.38;;;3.42;;
41885;SDS011;27567;43.084;25.616;2022-10-16T13:05:32;6.00;;;3.20;;
41885;SDS011;27567;43.084;25.616;2022-10-16T13:18:19;9.40;;;3.47;;
41885;SDS011;27567;43.084;25.616;2022-10-16T13:21:33;8.18;;;4.13;;
41885;SDS011;27567;43.084;25.616;2022-10-16T13:30:38;7.00;;;3.45;;
41885;SDS011;27567;43.084;25.616;2022-10-16T13:33:34;8.10;;;4.03;;
41885;SDS011;27567;43.084;25.616;2022-10-16T13:36:25;9.23;;;3.65;;
41885;SDS011;27567;43.084;25.616;2022-10-16T13:42:26;8.68;;;3.78;;
41885;SDS011;27567;43.084;25.616;2022-10-16T13:45:19;10.38;;;3.75;;
41885;SDS011;27567;43.084;25.616;2022-10-16T13:48:09;7.35;;;3.40;;
41885;SDS011;27567;43.084;25.616;2022-10-16T13:51:01;9.40;;;4.20;;
41885;SDS011;27567;43.084;25.616;2022-10-16T13:54:07;7.63;;;3.72;;
41885;SDS011;27567;43.084;25.616;2022-10-16T13:56:54;7.90;;;3.50;;
41885;SDS011;27567;43.084;25.616;2022-10-16T13:59:41;9.38;;;3.92;;
41885;SDS011;27567;43.084;25.616;2022-10-16T14:02:27;7.30;;;3.05;;
41885;SDS011;27567;43.084;25.616;2022-10-16T14:05:18;7.88;;;3.50;;
41885;SDS011;27567;43.084;25.616;2022-10-16T14:08:02;9.10;;;3.40;;
41885;SDS011;27567;43.084;25.616;2022-10-16T14:10:47;6.25;;;3.28;;
41885;SDS011;27567;43.084;25.616;2022-10-16T14:13:38;9.30;;;3.72;;
41885;SDS011;27567;43.084;25.616;2022-10-16T14:16:28;6.15;;;3.58;;
41885;SDS011;27567;43.084;25.616;2022-10-16T14:19:20;8.07;;;4.53;;
41885;SDS011;27567;43.084;25.616;2022-10-16T14:22:41;5.55;;;3.50;;
41885;SDS011;27567;43.084;25.616;2022-10-16T14:34:24;7.65;;;3.40;;
41885;SDS011;27567;43.084;25.616;2022-10-16T14:40:15;10.65;;;3.25;;
41885;SDS011;27567;43.084;25.616;2022-10-16T14:43:00;8.65;;;3.60;;
41885;SDS011;27567;43.084;25.616;2022-10-16T14:45:49;6.20;;;3.05;;
41885;SDS011;27567;43.084;25.616;2022-10-16T14:48:36;6.53;;;2.88;;
41885;SDS011;27567;43.084;25.616;2022-10-16T14:51:26;5.63;;;3.30;;
41885;SDS011;27567;43.084;25.616;2022-10-16T14:53:51;5.32;;;3.10;;
41885;SDS011;27567;43.084;25.616;2022-10-16T14:56:24;9.52;;;3.67;;
41885;SDS011;27567;43.084;25.616;2022-10-16T14:58:54;10.95;;;3.58;;
41885;SDS011;27567;43.084;25.616;2022-10-16T15:01:21;7.05;;;3.20;;
41885;SDS011;27567;43.084;25.616;2022-10-16T15:03:47;7.10;;;3.55;;
41885;SDS011;27567;43.084;25.616;2022-10-16T15:06:14;7.53;;;3.63;;
41885;SDS011;27567;43.084;25.616;2022-10-16T15:08:41;5.80;;;3.33;;
41885;SDS011;27567;43.084;25.616;2022-10-16T15:11:14;7.65;;;3.30;;
41885;SDS011;27567;43.084;25.616;2022-10-16T15:13:42;6.13;;;3.25;;
41885;SDS011;27567;43.084;25.616;2022-10-16T15:16:15;5.22;;;3.10;;
41885;SDS011;27567;43.084;25.616;2022-10-16T15:18:41;9.98;;;3.08;;
41885;SDS011;27567;43.084;25.616;2022-10-16T15:21:08;18.83;;;4.15;;
41885;SDS011;27567;43.084;25.616;2022-10-16T15:23:48;6.65;;;3.22;;
41885;SDS011;27567;43.084;25.616;2022-10-16T15:26:15;10.48;;;3.67;;
41885;SDS011;27567;43.084;25.616;2022-10-16T15:28:48;9.23;;;3.92;;
41885;SDS011;27567;43.084;25.616;2022-10-16T15:31:14;8.45;;;3.92;;
41885;SDS011;27567;43.084;25.616;2022-10-16T15:33:39;5.32;;;3.25;;
41885;SDS011;27567;43.084;25.616;2022-10-16T15:36:06;6.80;;;3.72;;
41885;SDS011;27567;43.084;25.616;2022-10-16T15:38:33;6.20;;;3.50;;
41885;SDS011;27567;43.084;25.616;2022-10-16T15:41:01;7.47;;;3.28;;
41885;SDS011;27567;43.084;25.616;2022-10-16T15:43:27;13.52;;;3.95;;
41885;SDS011;27567;43.084;25.616;2022-10-16T15:46:01;8.90;;;3.63;;
41885;SDS011;27567;43.084;25.616;2022-10-16T15:48:29;5.88;;;3.38;;
41885;SDS011;27567;43.084;25.616;2022-10-16T15:51:04;8.52;;;3.50;;
41885;SDS011;27567;43.084;25.616;2022-10-16T15:53:31;9.23;;;3.25;;
41885;SDS011;27567;43.084;25.616;2022-10-16T15:55:57;11.60;;;3.72;;
41885;SDS011;27567;43.084;25.616;2022-10-16T15:58:22;8.85;;;4.13;;
41885;SDS011;27567;43.084;25.616;2022-10-16T16:00:55;7.25;;;3.65;;
41885;SDS011;27567;43.084;25.616;2022-10-16T16:03:21;7.75;;;3.53;;
41885;SDS011;27567;43.084;25.616;2022-10-16T16:05:47;9.65;;;3.60;;
41885;SDS011;27567;43.084;25.616;2022-10-16T16:08:12;6.22;;;3.65;;
41885;SDS011;27567;43.084;25.616;2022-10-16T16:10:38;6.47;;;3.80;;
41885;SDS011;27567;43.084;25.616;2022-10-16T16:13:04;5.30;;;3.40;;
41885;SDS011;27567;43.084;25.616;2022-10-16T16:15:29;4.50;;;3.08;;
41885;SDS011;27567;43.084;25.616;2022-10-16T16:17:55;5.50;;;3.05;;
41885;SDS011;27567;43.084;25.616;2022-10-16T16:20:23;6.93;;;4.20;;
41885;SDS011;27567;43.084;25.616;2022-10-16T16:22:49;7.28;;;3.78;;
41885;SDS011;27567;43.084;25.616;2022-10-16T16:25:15;11.25;;;3.55;;
41885;SDS011;27567;43.084;25.616;2022-10-16T16:27:40;6.70;;;3.88;;
41885;SDS011;27567;43.084;25.616;2022-10-16T16:30:06;7.57;;;3.80;;
41885;SDS011;27567;43.084;25.616;2022-10-16T16:32:33;9.85;;;5.25;;
41885;SDS011;27567;43.084;25.616;2022-10-16T16:35:00;7.25;;;3.60;;
41885;SDS011;27567;43.084;25.616;2022-10-16T16:37:26;11.80;;;3.45;;
41885;SDS011;27567;43.084;25.616;2022-10-16T16:39:52;7.38;;;3.70;;
41885;SDS011;27567;43.084;25.616;2022-10-16T16:42:20;5.18;;;3.40;;
41885;SDS011;27567;43.084;25.616;2022-10-16T16:44:47;7.82;;;3.42;;
41885;SDS011;27567;43.084;25.616;2022-10-16T16:47:13;10.88;;;3.80;;
41885;SDS011;27567;43.084;25.616;2022-10-16T16:49:39;9.52;;;3.75;;
41885;SDS011;27567;43.084;25.616;2022-10-16T16:52:08;7.70;;;3.40;;
41885;SDS011;27567;43.084;25.616;2022-10-16T16:54:33;7.93;;;3.72;;
41885;SDS011;27567;43.084;25.616;2022-10-16T16:56:59;6.68;;;3.70;;
41885;SDS011;27567;43.084;25.616;2022-10-16T16:59:24;6.30;;;3.88;;
41885;SDS011;27567;43.084;25.616;2022-10-16T17:01:50;6.05;;;3.67;;
41885;SDS011;27567;43.084;25.616;2022-10-16T17:04:16;5.93;;;3.47;;
41885;SDS011;27567;43.084;25.616;2022-10-16T17:06:45;6.75;;;3.67;;
41885;SDS011;27567;43.084;25.616;2022-10-16T17:09:11;4.82;;;3.70;;
41885;SDS011;27567;43.084;25.616;2022-10-16T17:11:38;8.20;;;4.40;;
41885;SDS011;27567;43.084;25.616;2022-10-16T17:14:06;7.45;;;4.20;;
41885;SDS011;27567;43.084;25.616;2022-10-16T17:16:34;6.50;;;4.05;;
41885;SDS011;27567;43.084;25.616;2022-10-16T17:19:02;7.85;;;3.80;;
41885;SDS011;27567;43.084;25.616;2022-10-16T17:21:31;8.43;;;4.50;;
41885;SDS011;27567;43.084;25.616;2022-10-16T17:23:57;9.68;;;4.00;;
41885;SDS011;27567;43.084;25.616;2022-10-16T17:26:23;9.65;;;4.90;;
41885;SDS011;27567;43.084;25.616;2022-10-16T17:28:50;8.98;;;4.05;;
41885;SDS011;27567;43.084;25.616;2022-10-16T17:31:20;9.95;;;4.15;;
41885;SDS011;27567;43.084;25.616;2022-10-16T17:33:47;11.27;;;4.50;;
41885;SDS011;27567;43.084;25.616;2022-10-16T17:36:13;7.45;;;4.05;;
41885;SDS011;27567;43.084;25.616;2022-10-16T17:38:40;8.80;;;3.88;;
41885;SDS011;27567;43.084;25.616;2022-10-16T17:41:13;9.98;;;4.50;;
41885;SDS011;27567;43.084;25.616;2022-10-16T17:43:41;10.18;;;4.07;;
41885;SDS011;27567;43.084;25.616;2022-10-16T17:46:08;7.05;;;4.43;;
41885;SDS011;27567;43.084;25.616;2022-10-16T17:48:38;6.70;;;4.07;;
41885;SDS011;27567;43.084;25.616;2022-10-16T17:51:06;9.05;;;4.00;;
41885;SDS011;27567;43.084;25.616;2022-10-16T17:53:33;11.45;;;3.88;;
41885;SDS011;27567;43.084;25.616;2022-10-16T17:56:07;12.02;;;4.93;;
41885;SDS011;27567;43.084;25.616;2022-10-16T17:58:36;8.15;;;3.90;;
41885;SDS011;27567;43.084;25.616;2022-10-16T18:01:16;10.85;;;4.20;;